Time;durP1;ratioP1;P1;durP2;ratioP2;P2;SDS_P1;SDS_P2;PMS_P1;PMS_P2;Temp;Humidity;BMP_temperature;BMP_pressure;BME280_temperature;BME280_humidity;BME280_pressure;Samples;Min_cycle;Max_cycle;Signal;HPM_P1;HPM_P2
2022/07/27 00:00:55;;;;;;;10.05;7.45;;;;;;;27.05;44.32;99033.53;5033946;28;20029;-43
2022/07/27 00:03:22;;;;;;;9.77;7.43;;;;;;;27.13;44.12;99032.69;5034063;28;20033;-43
2022/07/27 00:05:48;;;;;;;8.82;7.15;;;;;;;27.76;42.74;99038.19;5034393;28;20041;-44
2022/07/27 00:08:13;;;;;;;7.80;7.00;;;;;;;27.13;43.97;99040.06;5033764;28;20025;-42
2022/07/27 00:10:39;;;;;;;9.15;7.72;;;;;;;26.88;44.75;99042.59;5034023;28;20476;-42
2022/07/27 00:13:05;;;;;;;11.32;7.45;;;;;;;26.80;45.28;99044.25;5034103;28;20041;-45
2022/07/27 00:15:32;;;;;;;10.00;7.60;;;;;;;26.75;45.22;99046.34;5034398;28;20043;-43
2022/07/27 00:17:59;;;;;;;8.70;7.15;;;;;;;27.44;43.76;99042.47;5033604;28;20032;-43
2022/07/27 00:20:29;;;;;;;9.88;7.50;;;;;;;26.95;45.21;99040.16;5033845;28;20033;-42
2022/07/27 00:22:55;;;;;;;10.43;7.35;;;;;;;26.81;45.86;99051.31;5033963;28;20051;-43
2022/07/27 00:25:22;;;;;;;8.73;7.82;;;;;;;26.85;45.33;99051.47;5033452;28;20029;-44
2022/07/27 00:27:47;;;;;;;10.27;7.38;;;;;;;27.13;45.45;99050.97;5033465;28;20108;-42
2022/07/27 00:30:13;;;;;;;10.48;7.35;;;;;;;27.52;44.27;99051.72;5033265;28;20039;-44
2022/07/27 00:32:38;;;;;;;11.25;8.55;;;;;;;26.81;45.80;99055.97;5033403;28;20045;-43
2022/07/27 00:35:04;;;;;;;13.93;8.63;;;;;;;26.47;46.70;99052.22;5033655;28;20101;-43
2022/07/27 00:37:29;;;;;;;11.85;8.25;;;;;;;26.30;47.37;99053.06;5033759;28;20171;-44
2022/07/27 00:39:55;;;;;;;9.23;7.93;;;;;;;26.49;47.07;99053.50;5033137;28;20116;-44
2022/07/27 00:42:26;;;;;;;9.68;8.05;;;;;;;27.20;45.23;99060.25;5033309;28;20377;-46
2022/07/27 00:44:56;;;;;;;12.23;9.00;;;;;;;26.68;46.58;99055.88;5033197;28;20094;-43
2022/07/27 00:47:22;;;;;;;11.45;8.63;;;;;;;26.56;46.79;99052.19;5033317;28;20025;-43
2022/07/27 00:49:47;;;;;;;12.98;9.40;;;;;;;26.65;46.51;99053.78;5032686;28;20232;-43
2022/07/27 00:52:14;;;;;;;13.40;8.68;;;;;;;26.54;47.11;99068.91;5033002;28;20037;-43
2022/07/27 00:54:40;;;;;;;11.07;8.57;;;;;;;27.18;45.50;99067.97;5033229;28;20030;-43
2022/07/27 00:57:09;;;;;;;12.20;9.00;;;;;;;26.43;46.95;99062.19;5033071;28;20076;-43
2022/07/27 00:59:34;;;;;;;12.52;8.77;;;;;;;26.36;47.42;99070.84;5033172;28;20025;-47
2022/07/27 01:02:00;;;;;;;9.38;8.45;;;;;;;26.44;47.35;99059.13;5032549;28;20044;-44
2022/07/27 01:04:25;;;;;;;13.00;9.45;;;;;;;26.65;46.51;99061.16;5032684;28;20033;-46
2022/07/27 01:06:51;;;;;;;11.75;9.30;;;;;;;27.28;45.22;99073.09;5032206;28;20044;-44
2022/07/27 01:12:00;;;;;;;11.80;9.77;;;;;;;26.18;47.71;99064.66;5032428;28;20052;-44
2022/07/27 01:14:26;;;;;;;11.90;10.00;;;;;;;26.10;48.50;99063.56;5033448;28;20021;-43
2022/07/27 01:16:51;;;;;;;13.32;10.48;;;;;;;26.12;48.48;99066.75;5032939;28;20044;-43
2022/07/27 01:19:17;;;;;;;13.50;10.30;;;;;;;26.84;46.40;99058.81;5049952;28;20028;-43
2022/07/27 01:21:43;;;;;;;15.20;10.45;;;;;;;26.30;47.92;99062.06;5052246;28;20078;-45
2022/07/27 01:24:09;;;;;;;15.27;11.75;;;;;;;26.40;47.84;99068.28;5052620;28;20029;-43
2022/07/27 01:26:36;;;;;;;17.38;12.90;;;;;;;26.62;46.82;99070.81;5052744;28;20070;-43
2022/07/27 01:29:02;;;;;;;19.33;12.93;;;;;;;26.71;46.56;99077.03;5052946;28;20150;-42
2022/07/27 01:31:27;;;;;;;17.83;12.85;;;;;;;26.99;45.69;99075.78;5052442;28;20503;-43
2022/07/27 01:33:53;;;;;;;20.60;13.50;;;;;;;26.62;47.00;99075.47;5052560;28;20033;-42
2022/07/27 01:36:19;;;;;;;17.83;11.95;;;;;;;26.36;47.89;99079.03;5052143;28;20389;-43
2022/07/27 01:38:45;;;;;;;15.30;11.35;;;;;;;26.54;47.34;99077.09;5052340;28;20094;-45
2022/07/27 01:41:11;;;;;;;17.92;12.15;;;;;;;26.46;47.34;99077.88;5052577;28;20572;-44
2022/07/27 01:43:37;;;;;;;22.92;15.63;;;;;;;26.65;46.65;99077.53;5052168;28;20473;-42
2022/07/27 01:46:02;;;;;;;60.13;22.17;;;;;;;26.46;47.46;99080.63;5052126;28;20154;-42
2022/07/27 01:48:28;;;;;;;35.20;20.58;;;;;;;26.32;47.74;99070.72;5052039;28;20527;-44
2022/07/27 01:50:53;;;;;;;34.50;19.35;;;;;;;26.30;47.85;99078.41;5052101;28;20024;-44
2022/07/27 01:53:20;;;;;;;37.05;18.13;;;;;;;26.00;49.30;99073.97;5051717;28;20021;-43
2022/07/27 01:55:46;;;;;;;31.10;17.83;;;;;;;26.70;47.32;99072.69;5051747;28;20464;-43
2022/07/27 01:58:12;;;;;;;29.95;17.27;;;;;;;25.88;48.81;99080.84;5051927;28;20040;-43
2022/07/27 02:00:38;;;;;;;32.03;17.20;;;;;;;25.59;50.52;99076.03;5052050;28;20029;-46
2022/07/27 02:03:06;;;;;;;26.15;16.35;;;;;;;25.74;49.87;99082.91;5052304;28;20036;-44
2022/07/27 02:05:31;;;;;;;27.83;19.40;;;;;;;25.44;50.28;99074.59;5051621;28;20138;-43
2022/07/27 02:07:57;;;;;;;30.92;17.70;;;;;;;26.27;48.16;99083.72;5051707;28;20025;-43
2022/07/27 02:10:22;;;;;;;17.35;11.93;;;;;;;25.65;49.39;99079.41;5049655;28;20045;-43
2022/07/27 02:12:49;;;;;;;17.65;10.70;;;;;;;25.43;50.07;99072.19;5050954;28;20480;-43
2022/07/27 02:15:21;;;;;;;19.30;11.73;;;;;;;25.32;50.48;99085.28;5051161;28;20032;-42
2022/07/27 02:17:48;;;;;;;19.38;11.13;;;;;;;25.27;50.66;99085.44;5050835;28;20027;-42
2022/07/27 02:20:17;;;;;;;14.75;10.70;;;;;;;25.67;49.91;99086.13;5050943;28;20060;-42
2022/07/27 02:22:43;;;;;;;;;;;;;;;25.09;51.24;99088.09;5052091;28;20052;-42
2022/07/27 02:25:10;;;;;;;11.40;9.30;;;;;;;25.20;51.20;99090.53;5051376;28;20360;-43
2022/07/27 02:27:35;;;;;;;11.35;9.32;;;;;;;25.20;50.86;99090.53;5051267;28;20039;-43
2022/07/27 02:30:01;;;;;;;10.13;9.02;;;;;;;25.22;50.94;99082.84;5051422;28;20029;-44
2022/07/27 02:32:27;;;;;;;17.42;10.00;;;;;;;25.55;50.20;99088.69;5051539;28;20064;-42
2022/07/27 02:34:52;;;;;;;11.40;9.63;;;;;;;24.96;51.69;99087.09;5051572;28;20053;-43
2022/07/27 02:37:18;;;;;;;13.57;9.82;;;;;;;24.88;52.45;99084.31;5051202;28;20040;-43
2022/07/27 02:39:43;;;;;;;16.33;10.10;;;;;;;24.91;52.35;99089.94;5051343;28;20025;-43
2022/07/27 02:42:09;;;;;;;12.93;9.82;;;;;;;25.16;51.78;99085.69;5051581;28;20033;-44
2022/07/27 02:44:34;;;;;;;14.38;10.32;;;;;;;25.39;51.19;99091.06;5051107;28;20034;-45
2022/07/27 02:47:00;;;;;;;14.48;10.48;;;;;;;24.98;52.27;99079.41;5050845;28;20024;-44
2022/07/27 02:49:25;;;;;;;16.77;10.10;;;;;;;24.66;52.41;99034.31;5050710;28;20074;-43
2022/07/27 02:51:51;;;;;;;11.30;9.35;;;;;;;24.97;52.32;99090.59;5050991;28;20047;-42
2022/07/27 02:54:23;;;;;;;13.65;9.32;;;;;;;25.21;51.87;99094.84;5051210;28;20108;-42
2022/07/27 02:56:52;;;;;;;11.70;9.43;;;;;;;25.19;51.60;99087.00;5051004;28;20473;-42
2022/07/27 02:59:18;;;;;;;13.05;9.38;;;;;;;24.83;52.92;99098.06;5050498;28;20032;-42
2022/07/27 03:01:45;;;;;;;14.43;9.90;;;;;;;24.68;53.39;99093.88;5051025;28;20033;-42
2022/07/27 03:04:11;;;;;;;11.18;9.45;;;;;;;24.71;53.46;99095.94;5050803;28;20033;-42
2022/07/27 03:06:36;;;;;;;22.98;16.08;;;;;;;25.17;52.32;99100.94;5051021;28;20040;-42
2022/07/27 03:09:03;;;;;;;21.52;13.82;;;;;;;25.25;52.46;99104.03;5050524;28;20032;-42
2022/07/27 03:11:29;;;;;;;24.25;10.80;;;;;;;24.65;53.74;99091.75;5051038;28;20067;-41
2022/07/27 03:13:54;;;;;;;36.33;17.17;;;;;;;24.47;54.32;99102.50;5034731;28;20052;-42
2022/07/27 03:16:20;;;;;;;23.65;10.48;;;;;;;24.49;54.48;99108.44;5037106;28;20407;-43
2022/07/27 03:18:45;;;;;;;17.98;10.45;;;;;;;24.82;53.34;99105.44;5050290;28;20033;-42
2022/07/27 03:21:12;;;;;;;13.38;10.13;;;;;;;24.68;53.19;99108.25;5050584;28;20048;-43
2022/07/27 03:23:37;;;;;;;20.58;10.55;;;;;;;24.44;53.81;99102.34;5050741;28;20109;-42
2022/07/27 03:26:03;;;;;;;23.75;10.23;;;;;;;24.50;54.24;99106.53;5050353;28;20060;-43
2022/07/27 03:28:28;;;;;;;20.00;10.00;;;;;;;24.51;54.40;99117.13;5050650;28;20044;-41
2022/07/27 03:30:54;;;;;;;15.75;10.48;;;;;;;24.92;53.12;99118.78;5053318;28;20028;-42
2022/07/27 03:33:19;;;;;;;15.65;10.00;;;;;;;24.77;53.52;99125.44;5054991;28;20488;-43
2022/07/27 03:35:45;;;;;;;14.95;10.20;;;;;;;24.50;54.90;99122.84;5054786;28;20055;-42
2022/07/27 03:38:10;;;;;;;17.77;10.27;;;;;;;24.51;54.70;99122.56;5054972;28;20029;-43
2022/07/27 03:40:36;;;;;;;22.67;10.50;;;;;;;24.78;54.35;99127.00;5054244;28;20029;-41
2022/07/27 03:43:01;;;;;;;18.10;10.27;;;;;;;25.33;52.03;99135.91;5054874;28;20075;-42
2022/07/27 03:45:27;;;;;;;24.45;11.15;;;;;;;25.17;53.36;99135.53;5054526;28;20032;-41
2022/07/27 03:47:52;;;;;;;20.65;11.40;;;;;;;25.10;53.67;99135.97;5054494;28;20369;-42
2022/07/27 03:50:18;;;;;;;17.23;10.98;;;;;;;25.25;53.53;99142.13;5054280;28;20047;-41
2022/07/27 03:52:44;;;;;;;15.00;10.93;;;;;;;25.30;53.39;99145.53;5054001;28;20494;-44
2022/07/27 03:55:09;;;;;;;19.08;12.30;;;;;;;25.73;52.19;99144.78;5054253;28;20030;-44
2022/07/27 03:57:35;;;;;;;18.40;12.38;;;;;;;26.60;49.76;99143.19;5054402;28;20028;-43
2022/07/27 04:00:00;;;;;;;13.63;12.15;;;;;;;26.44;49.51;99143.66;5054287;28;20027;-46
2022/07/27 04:02:26;;;;;;;14.88;12.07;;;;;;;26.52;49.48;99148.34;5053652;28;20031;-43
2022/07/27 04:04:51;;;;;;;17.15;12.48;;;;;;;26.71;49.20;99152.63;5054066;28;20108;-42
2022/07/27 04:07:16;;;;;;;17.92;12.75;;;;;;;26.77;48.99;99145.06;5054073;28;20114;-43
2022/07/27 04:09:42;;;;;;;17.77;12.23;;;;;;;27.20;47.39;99150.34;5053889;28;20055;-42
2022/07/27 04:12:07;;;;;;;20.60;11.90;;;;;;;27.30;46.81;99144.56;5053825;28;20436;-42
2022/07/27 04:14:33;;;;;;;15.18;11.68;;;;;;;26.97;47.53;99155.28;5053645;28;20094;-41
2022/07/27 04:16:58;;;;;;;15.80;10.90;;;;;;;27.17;47.21;99155.69;5040900;28;20105;-43
2022/07/27 04:19:24;;;;;;;13.93;10.93;;;;;;;27.26;46.78;99149.09;5051386;28;20116;-41
2022/07/27 04:21:49;;;;;;;12.65;11.25;;;;;;;27.44;46.55;99163.44;5036097;28;20052;-44
2022/07/27 04:24:15;;;;;;;16.60;11.93;;;;;;;28.18;44.99;99165.84;5032086;28;20510;-42
2022/07/27 04:26:40;;;;;;;16.02;11.98;;;;;;;27.82;45.60;99169.97;5033103;28;20112;-42
2022/07/27 04:29:05;;;;;;;14.32;11.75;;;;;;;27.57;46.24;99169.00;5032962;28;20120;-41
2022/07/27 04:31:31;;;;;;;14.57;11.45;;;;;;;27.71;45.70;99169.56;5032033;28;20036;-42
2022/07/27 04:33:56;;;;;;;16.42;11.15;;;;;;;27.95;44.98;99179.88;5031998;28;20067;-44
2022/07/27 04:36:22;;;;;;;14.25;10.52;;;;;;;28.71;43.63;99175.22;5032054;28;20025;-44
2022/07/27 04:38:47;;;;;;;30.63;18.08;;;;;;;28.49;43.63;99175.56;5032069;28;20116;-40
2022/07/27 04:41:13;;;;;;;17.80;11.52;;;;;;;28.47;43.54;99170.41;5031478;28;20029;-41
2022/07/27 04:43:38;;;;;;;20.42;11.02;;;;;;;28.65;43.18;99173.78;5032090;28;20453;-43
2022/07/27 04:46:04;;;;;;;18.00;10.15;;;;;;;29.04;42.09;99174.34;5033049;28;20037;-42
2022/07/27 04:48:32;;;;;;;17.75;9.45;;;;;;;29.23;41.76;99187.50;5033043;28;20033;-43
2022/07/27 04:50:57;;;;;;;11.98;9.60;;;;;;;29.76;40.52;99179.41;5033191;28;20100;-42
2022/07/27 04:53:23;;;;;;;12.88;10.05;;;;;;;29.26;41.12;99175.84;5032960;28;20426;-42
2022/07/27 04:55:48;;;;;;;15.27;9.38;;;;;;;29.35;41.18;99182.03;5032562;28;20030;-45
2022/07/27 04:58:14;;;;;;;12.32;9.32;;;;;;;29.78;40.23;99185.34;5033045;28;20120;-43
2022/07/27 05:00:40;;;;;;;15.80;9.32;;;;;;;30.16;39.41;99193.13;5032790;28;20025;-44
2022/07/27 05:03:06;;;;;;;13.65;9.80;;;;;;;28.92;41.54;99188.81;5032974;28;20025;-46
2022/07/27 05:05:31;;;;;;;13.30;9.43;;;;;;;29.45;40.90;99199.94;5032633;28;20025;-44
2022/07/27 05:07:57;;;;;;;10.25;9.20;;;;;;;29.85;40.19;99201.19;5032545;28;20025;-44
2022/07/27 05:10:22;;;;;;;10.55;8.80;;;;;;;30.74;38.20;99203.75;5032138;28;20496;-44
2022/07/27 05:12:48;;;;;;;11.07;8.93;;;;;;;30.30;39.24;99198.22;5032680;28;20029;-44
2022/07/27 05:15:15;;;;;;;11.90;9.25;;;;;;;30.35;38.87;99202.69;5032503;28;20025;-41
2022/07/27 05:17:41;;;;;;;11.73;8.95;;;;;;;30.63;38.66;99212.84;5032109;28;20028;-44
2022/07/27 05:20:07;;;;;;;11.60;9.30;;;;;;;30.47;38.65;99208.13;5032267;28;20037;-42
2022/07/27 05:22:32;;;;;;;10.95;9.07;;;;;;;30.72;38.24;99208.78;5032502;28;20109;-42
2022/07/27 05:24:58;;;;;;;10.60;8.93;;;;;;;30.57;38.72;99182.13;5032314;28;20101;-45
2022/07/27 05:27:23;;;;;;;10.27;8.95;;;;;;;30.89;38.50;99204.13;5031866;28;20045;-43
2022/07/27 05:29:49;;;;;;;11.00;8.32;;;;;;;31.36;37.96;99206.91;5031579;28;20429;-41
2022/07/27 05:32:14;;;;;;;14.52;9.13;;;;;;;31.29;37.57;99206.75;5032126;28;20087;-43
2022/07/27 05:34:40;;;;;;;14.50;9.00;;;;;;;30.96;38.32;99207.91;5032237;28;20030;-43
2022/07/27 05:37:07;;;;;;;11.27;9.57;;;;;;;31.13;38.13;99211.44;5032430;28;20021;-43
2022/07/27 05:39:32;;;;;;;11.85;8.75;;;;;;;31.54;37.60;99217.56;5032096;28;20056;-43
2022/07/27 05:41:57;;;;;;;10.13;9.13;;;;;;;31.61;37.25;99209.50;5032174;28;20057;-43
2022/07/27 05:44:23;;;;;;;11.07;8.50;;;;;;;31.35;37.83;99221.81;5032151;28;20087;-42
2022/07/27 05:46:48;;;;;;;13.13;9.30;;;;;;;31.63;37.90;99209.13;5032244;28;20025;-43
2022/07/27 05:49:14;;;;;;;11.65;9.32;;;;;;;32.12;36.89;99225.16;5031571;28;20025;-42
2022/07/27 05:51:39;;;;;;;10.63;8.95;;;;;;;32.80;35.77;99223.78;5031943;28;20021;-45
2022/07/27 05:54:05;;;;;;;10.32;9.05;;;;;;;32.56;36.35;99221.31;5031571;28;20465;-44
2022/07/27 05:56:30;;;;;;;10.82;8.85;;;;;;;32.64;36.49;99220.34;5032081;28;20029;-43
2022/07/27 05:58:56;;;;;;;12.52;8.70;;;;;;;33.05;35.83;99212.41;5031658;28;20174;-43
2022/07/27 06:01:21;;;;;;;13.38;8.85;;;;;;;33.56;34.98;99219.56;5031759;28;20098;-43
2022/07/27 06:03:47;;;;;;;11.88;9.27;;;;;;;33.60;34.81;99209.38;5032079;28;19960;-44
2022/07/27 06:08:56;;;;;;;12.10;8.93;;;;;;;33.66;34.02;99205.16;5032093;28;20060;-45
2022/07/27 06:11:22;;;;;;;12.70;9.90;;;;;;;34.56;32.81;99215.41;5039654;28;20064;-43
2022/07/27 06:13:49;;;;;;;10.00;8.55;;;;;;;34.44;32.97;99210.94;5051430;28;20443;-43
2022/07/27 06:16:15;;;;;;;10.35;8.55;;;;;;;34.17;33.21;99215.72;5051131;28;20480;-48
2022/07/27 06:18:40;;;;;;;14.93;8.25;;;;;;;34.44;32.70;99210.13;5051160;28;20036;-43
2022/07/27 06:21:06;;;;;;;9.20;7.68;;;;;;;34.63;32.42;99215.47;5050988;28;20029;-44
2022/07/27 06:23:31;;;;;;;16.20;8.35;;;;;;;35.33;31.61;99207.47;5051477;28;20021;-46
2022/07/27 06:25:57;;;;;;;13.30;8.55;;;;;;;35.15;31.72;99215.59;5051141;28;20036;-43
2022/07/27 06:28:22;;;;;;;14.02;8.23;;;;;;;34.99;31.63;99218.59;5051275;28;20024;-44
2022/07/27 06:30:48;;;;;;;14.95;9.00;;;;;;;35.34;31.40;99216.53;5049854;28;20021;-42
2022/07/27 06:33:14;;;;;;;12.63;8.48;;;;;;;35.80;30.52;99205.81;5051015;28;20028;-42
2022/07/27 06:35:40;;;;;;;11.40;7.78;;;;;;;35.92;30.34;99210.22;5051324;28;20020;-42
2022/07/27 06:38:07;;;;;;;22.55;8.60;;;;;;;35.89;30.36;99212.97;5051102;28;20516;-43
2022/07/27 06:40:33;;;;;;;13.45;8.38;;;;;;;35.99;30.36;99209.50;5050987;28;20025;-43
2022/07/27 06:42:59;;;;;;;13.00;7.80;;;;;;;35.70;30.64;99206.56;5050781;28;20104;-42
2022/07/27 06:45:25;;;;;;;14.27;9.05;;;;;;;36.68;29.19;99205.03;5050655;28;20158;-43
2022/07/27 06:47:50;;;;;;;13.25;8.20;;;;;;;36.38;29.71;99208.88;5049648;28;20063;-43
2022/07/27 06:50:20;;;;;;;12.40;8.35;;;;;;;36.27;30.15;99208.03;5050886;28;20501;-44
2022/07/27 06:52:46;;;;;;;13.15;8.43;;;;;;;36.47;29.65;99202.97;5049350;28;20016;-44
2022/07/27 06:55:12;;;;;;;13.18;7.90;;;;;;;37.25;28.67;99191.22;5051008;28;20025;-46
2022/07/27 06:57:37;;;;;;;10.13;7.72;;;;;;;37.17;28.76;99189.66;5050915;28;20028;-45
2022/07/27 07:00:05;;;;;;;12.82;8.57;;;;;;;36.68;29.35;99191.97;5050973;28;20420;-44
2022/07/27 07:02:31;;;;;;;8.90;8.00;;;;;;;36.84;29.28;99182.47;5050911;28;20032;-43
2022/07/27 07:04:57;;;;;;;11.60;7.93;;;;;;;37.32;28.77;99185.66;5049850;28;20111;-42
2022/07/27 07:07:23;;;;;;;14.32;8.35;;;;;;;37.95;27.36;99177.59;5050776;28;20025;-44
2022/07/27 07:09:49;;;;;;;11.65;7.70;;;;;;;37.64;27.99;99182.09;5050748;28;20095;-43
2022/07/27 07:12:14;;;;;;;11.25;8.90;;;;;;;37.44;27.49;99176.13;5033554;28;20385;-43
2022/07/27 07:14:40;;;;;;;10.50;8.05;;;;;;;37.01;28.34;99178.91;5030608;28;20491;-42
2022/07/27 07:17:05;;;;;;;10.05;8.63;;;;;;;37.68;27.42;99173.72;5031322;28;20109;-44
2022/07/27 07:19:31;;;;;;;8.38;7.55;;;;;;;37.26;28.02;99178.13;5050237;28;20075;-43
2022/07/27 07:21:56;;;;;;;9.52;8.07;;;;;;;37.42;27.72;99166.63;5049519;28;20032;-45
2022/07/27 07:24:22;;;;;;;11.07;7.75;;;;;;;37.44;27.24;99176.13;5050538;28;20098;-45
2022/07/27 07:26:47;;;;;;;10.65;7.63;;;;;;;38.38;26.33;99173.06;5050638;28;20102;-46
2022/07/27 07:29:12;;;;;;;8.68;7.57;;;;;;;37.88;26.99;99174.84;5050427;28;20100;-41
2022/07/27 07:31:38;;;;;;;8.60;7.78;;;;;;;38.00;26.86;99156.94;5050386;28;20020;-43
2022/07/27 07:34:04;;;;;;;10.95;8.38;;;;;;;37.96;27.02;99167.28;5050066;28;20049;-45
2022/07/27 07:36:29;;;;;;;11.52;8.45;;;;;;;37.90;26.68;99166.13;5049694;28;20481;-44
2022/07/27 07:38:55;;;;;;;9.98;8.40;;;;;;;37.27;27.67;99163.09;5049957;28;20029;-47
2022/07/27 07:41:23;;;;;;;9.60;8.30;;;;;;;37.51;27.25;99167.03;5050530;28;20021;-43
2022/07/27 07:43:49;;;;;;;13.70;8.02;;;;;;;37.63;27.65;99160.28;5050039;28;20025;-43
2022/07/27 07:46:15;;;;;;;10.07;7.78;;;;;;;38.52;26.71;99162.66;5050279;28;20044;-45
2022/07/27 07:48:42;;;;;;;13.02;8.50;;;;;;;38.96;25.31;99163.16;5049865;28;20428;-43
2022/07/27 07:51:08;;;;;;;12.93;9.30;;;;;;;38.22;26.43;99159.66;5049967;28;20108;-46
2022/07/27 07:53:34;;;;;;;9.27;8.27;;;;;;;38.27;27.01;99157.25;5050084;28;20485;-45
2022/07/27 07:55:59;;;;;;;9.25;8.35;;;;;;;38.22;26.13;99151.34;5050128;28;20096;-44
2022/07/27 07:58:26;;;;;;;11.38;8.10;;;;;;;39.00;25.66;99154.81;5049905;28;20020;-46
2022/07/27 08:00:51;;;;;;;9.85;8.38;;;;;;;38.50;25.81;99148.38;5049960;28;20142;-45
2022/07/27 08:03:17;;;;;;;9.35;8.32;;;;;;;38.76;25.98;99154.56;5050463;28;20069;-44
2022/07/27 08:05:43;;;;;;;13.02;8.77;;;;;;;38.97;24.91;99148.03;5049500;28;20033;-44
2022/07/27 08:08:09;;;;;;;10.75;9.20;;;;;;;40.22;23.90;99159.84;5050258;28;20033;-43
2022/07/27 08:10:34;;;;;;;9.75;8.85;;;;;;;39.33;24.81;99158.88;5049924;28;20132;-46
2022/07/27 08:13:00;;;;;;;11.90;9.15;;;;;;;39.32;24.86;99160.09;5050198;28;20104;-45
2022/07/27 08:15:27;;;;;;;12.32;9.48;;;;;;;38.77;25.32;99149.81;5050741;28;20122;-45
2022/07/27 08:17:52;;;;;;;10.43;9.40;;;;;;;39.58;24.16;99153.06;5053640;28;20079;-45
2022/07/27 08:20:18;;;;;;;10.48;9.38;;;;;;;39.54;24.50;99152.31;5053677;28;20037;-43
2022/07/27 08:22:44;;;;;;;10.82;9.60;;;;;;;39.55;24.22;99142.78;5053633;28;20170;-42
2022/07/27 08:25:10;;;;;;;10.57;9.35;;;;;;;39.63;24.45;99137.91;5053189;28;20021;-46
2022/07/27 08:27:35;;;;;;;10.68;9.65;;;;;;;39.64;25.03;99154.19;5053140;28;20067;-42
2022/07/27 08:30:01;;;;;;;10.48;9.48;;;;;;;39.74;23.88;99149.72;5053077;28;20056;-45
2022/07/27 08:32:27;;;;;;;11.60;9.25;;;;;;;39.33;24.79;99147.72;5053021;28;20029;-43
2022/07/27 08:34:53;;;;;;;14.82;9.52;;;;;;;39.46;24.77;99131.34;5052810;28;20025;-44
2022/07/27 08:37:19;;;;;;;12.27;9.63;;;;;;;39.95;24.13;99140.34;5051535;28;20082;-43
2022/07/27 08:39:44;;;;;;;10.18;9.18;;;;;;;40.37;23.70;99135.41;5052519;28;20477;-43
2022/07/27 08:42:10;;;;;;;10.90;9.25;;;;;;;39.71;23.52;99130.25;5052733;28;20492;-45
2022/07/27 08:44:39;;;;;;;9.85;8.85;;;;;;;39.99;23.45;99129.94;5052385;28;20512;-44
2022/07/27 08:47:07;;;;;;;13.77;9.50;;;;;;;39.89;23.63;99130.88;5052398;28;20104;-44
2022/07/27 08:49:33;;;;;;;14.27;9.45;;;;;;;40.36;23.09;99131.03;5052530;28;20029;-43
2022/07/27 08:52:00;;;;;;;13.18;8.68;;;;;;;39.94;22.75;99127.59;5052186;28;20025;-44
2022/07/27 08:54:26;;;;;;;10.90;9.17;;;;;;;39.44;22.79;99128.19;5052515;28;20029;-44
2022/07/27 08:56:52;;;;;;;10.70;8.82;;;;;;;39.07;22.94;99124.94;5052206;28;20037;-43
2022/07/27 08:59:17;;;;;;;10.98;9.05;;;;;;;40.10;22.63;99115.88;5052253;28;20028;-45
2022/07/27 09:01:43;;;;;;;9.88;8.85;;;;;;;39.57;23.30;99115.31;5051471;28;20029;-44
2022/07/27 09:04:09;;;;;;;11.85;8.73;;;;;;;39.83;23.28;99118.56;5051609;28;20217;-44
2022/07/27 09:06:50;;;;;;;10.25;8.43;;;;;;;39.83;23.31;99118.56;5036855;28;20036;-44
2022/07/27 09:09:20;;;;;;;10.82;9.00;;;;;;;40.21;22.78;99112.91;5032181;28;20030;-43
2022/07/27 09:12:26;;;;;;;10.90;9.80;;;;;;;39.96;22.86;99100.13;5031926;28;20188;-45
2022/07/27 09:15:03;;;;;;;9.95;8.90;;;;;;;40.29;22.63;99110.81;4990480;28;20414;-44
2022/07/27 09:17:28;;;;;;;15.23;9.02;;;;;;;40.47;22.29;99105.78;5031171;28;20056;-46
2022/07/27 09:19:54;;;;;;;14.10;8.77;;;;;;;40.46;22.14;99098.63;5051527;28;20361;-43
2022/07/27 09:22:52;;;;;;;9.55;8.65;;;;;;;40.34;22.28;99093.66;5052106;28;20080;-45
2022/07/27 09:25:21;;;;;;;10.73;8.50;;;;;;;40.80;22.23;99087.38;5051980;28;20098;-44
2022/07/27 09:27:48;;;;;;;11.43;8.68;;;;;;;40.84;21.44;99090.88;5051224;28;20024;-44
2022/07/27 09:30:18;;;;;;;11.13;9.30;;;;;;;40.78;22.00;99098.13;5051545;28;20036;-46
2022/07/27 09:33:03;;;;;;;9.82;8.85;;;;;;;40.71;22.04;99095.44;5051793;28;20333;-44
2022/07/27 09:35:35;;;;;;;13.30;9.02;;;;;;;40.31;22.00;99086.09;5051956;28;20033;-42
2022/07/27 09:38:23;;;;;;;9.80;8.80;;;;;;;40.33;22.66;99092.06;5051669;28;20025;-45
2022/07/27 09:41:05;;;;;;;9.98;9.07;;;;;;;41.17;21.32;99093.84;5051974;28;20107;-46
2022/07/27 09:43:44;;;;;;;12.05;9.52;;;;;;;40.40;22.52;99086.38;5051370;28;20104;-44
2022/07/27 09:46:10;;;;;;;9.82;8.82;;;;;;;40.78;22.43;99089.75;5051880;28;20021;-43
2022/07/27 09:48:36;;;;;;;11.05;8.52;;;;;;;40.95;22.07;99087.09;5051218;28;20519;-43
2022/07/27 09:51:04;;;;;;;9.90;8.50;;;;;;;41.79;21.26;99082.28;5051233;28;20029;-43
2022/07/27 09:53:31;;;;;;;10.02;8.65;;;;;;;41.42;21.80;99078.66;5051400;28;20434;-42
2022/07/27 09:56:04;;;;;;;9.73;8.82;;;;;;;41.53;21.91;99072.88;5051268;28;20033;-42
2022/07/27 09:58:50;;;;;;;9.23;8.43;;;;;;;41.48;21.13;99068.56;5051083;28;20037;-44
2022/07/27 10:01:36;;;;;;;11.57;8.90;;;;;;;41.94;21.14;99069.59;5049720;28;20075;-47
2022/07/27 10:04:04;;;;;;;11.48;8.95;;;;;;;41.46;20.91;99068.19;5051025;28;20485;-43
2022/07/27 10:06:30;;;;;;;;;;;;;;;41.38;20.76;99070.34;5051618;28;20036;-47
2022/07/27 10:08:57;;;;;;;9.27;8.20;;;;;;;41.53;21.14;99064.50;5051262;28;19908;-43
2022/07/27 10:11:24;;;;;;;8.98;7.90;;;;;;;41.70;20.55;99070.91;5051045;28;20520;-46
2022/07/27 10:13:52;;;;;;;11.23;9.00;;;;;;;41.85;20.01;99066.63;5050958;28;20444;-44
2022/07/27 10:16:24;;;;;;;;;;;;;;;41.80;20.33;99067.91;5051638;28;20413;-43
2022/07/27 10:19:05;;;;;;;9.18;8.27;;;;;;;41.68;20.54;99065.78;5051524;28;19995;-44
2022/07/27 10:21:32;;;;;;;8.68;7.88;;;;;;;41.66;20.29;99070.22;5033751;28;20033;-43
2022/07/27 10:24:02;;;;;;;11.20;8.27;;;;;;;42.26;19.59;99062.50;5031372;28;20036;-42
2022/07/27 10:26:32;;;;;;;8.68;7.70;;;;;;;41.56;19.10;99064.41;5030817;28;20029;-43
2022/07/27 10:29:00;;;;;;;8.98;7.47;;;;;;;40.63;21.05;99063.31;5031030;28;20155;-43
2022/07/27 10:31:34;;;;;;;8.80;7.80;;;;;;;41.01;20.64;99060.28;5030689;28;20025;-42
2022/07/27 10:34:02;;;;;;;8.38;7.50;;;;;;;41.31;20.26;99055.75;5030132;28;20025;-42
2022/07/27 10:36:31;;;;;;;9.75;8.00;;;;;;;41.60;20.02;99053.97;5030763;28;20025;-44
2022/07/27 10:39:05;;;;;;;8.82;8.02;;;;;;;40.99;20.29;99057.94;5030033;28;20025;-42
2022/07/27 10:41:30;;;;;;;10.30;7.82;;;;;;;41.00;20.71;99053.13;5031009;28;20029;-43
2022/07/27 10:44:13;;;;;;;8.40;7.65;;;;;;;40.89;20.23;99049.75;5031135;28;20026;-44
2022/07/27 10:46:54;;;;;;;8.85;7.97;;;;;;;41.45;19.52;99047.09;5030572;28;20049;-44
2022/07/27 10:49:31;;;;;;;10.10;8.02;;;;;;;41.93;19.01;99048.47;5030692;28;20139;-47
2022/07/27 10:51:59;;;;;;;11.25;7.50;;;;;;;41.93;19.43;99047.69;5031317;28;20029;-45
2022/07/27 10:54:35;;;;;;;8.35;7.43;;;;;;;41.44;18.89;99036.38;5031092;28;20040;-46
2022/07/27 10:57:03;;;;;;;12.75;11.50;;;;;;;41.57;19.12;99038.06;5030839;28;20041;-43
2022/07/27 10:59:38;;;;;;;;;;;;;;;42.18;19.01;99038.75;5030418;28;20437;-44
2022/07/27 11:02:12;;;;;;;10.88;7.15;;;;;;;42.22;18.61;99039.44;5030601;28;20373;-44
2022/07/27 11:04:49;;;;;;;8.95;6.88;;;;;;;42.02;18.78;99033.13;5030504;28;20485;-44
2022/07/27 11:07:20;;;;;;;7.60;6.90;;;;;;;41.85;18.22;99021.94;5030264;28;20037;-44
2022/07/27 11:09:49;;;;;;;7.38;6.63;;;;;;;42.03;17.55;99027.09;5033374;28;20059;-44
2022/07/27 11:12:16;;;;;;;8.10;7.25;;;;;;;42.85;16.58;99026.31;5050005;28;20057;-44
2022/07/27 11:14:55;;;;;;;7.78;7.07;;;;;;;41.69;18.30;99021.91;5050751;28;20033;-45
2022/07/27 11:17:25;;;;;;;7.93;7.13;;;;;;;41.50;18.11;99026.25;5050230;28;20036;-43
2022/07/27 11:19:55;;;;;;;7.45;6.75;;;;;;;41.52;17.98;99018.25;5049496;28;20048;-44
2022/07/27 11:22:33;;;;;;;8.43;7.07;;;;;;;41.30;18.92;99018.69;5050103;28;20120;-42
2022/07/27 11:25:00;;;;;;;8.73;6.60;;;;;;;41.47;17.84;99022.34;5050198;28;20086;-42
2022/07/27 11:27:27;;;;;;;8.07;7.28;;;;;;;41.32;18.68;99004.28;5050251;28;20021;-44
2022/07/27 11:29:52;;;;;;;6.88;6.20;;;;;;;41.19;17.74;99004.16;5049746;28;20060;-43
2022/07/27 11:32:19;;;;;;;8.15;6.90;;;;;;;41.55;17.33;99009.00;5050205;28;20104;-43